sensor_id;sensor_type;location;lat;lon;timestamp;temperature;humidity
24904;DHT22;12960;50.322;11.124;2022-07-29T00:00:44;20.00;99.90
24904;DHT22;12960;50.322;11.124;2022-07-29T00:01:45;20.10;99.90
24904;DHT22;12960;50.322;11.124;2022-07-29T00:02:46;20.00;99.90
24904;DHT22;12960;50.322;11.124;2022-07-29T00:03:47;20.00;99.90
24904;DHT22;12960;50.322;11.124;2022-07-29T00:04:48;20.10;99.90
24904;DHT22;12960;50.322;11.124;2022-07-29T00:05:49;20.10;99.90
24904;DHT22;12960;50.322;11.124;2022-07-29T00:06:52;20.10;99.90
24904;DHT22;12960;50.322;11.124;2022-07-29T00:07:53;20.10;99.90
24904;DHT22;12960;50.322;11.124;2022-07-29T00:08:54;20.20;99.90
24904;DHT22;12960;50.322;11.124;2022-07-29T00:09:56;20.20;99.90
24904;DHT22;12960;50.322;11.124;2022-07-29T00:10:57;20.20;99.90
24904;DHT22;12960;50.322;11.124;2022-07-29T00:12:00;20.10;99.90
24904;DHT22;12960;50.322;11.124;2022-07-29T00:13:01;20.10;99.90
24904;DHT22;12960;50.322;11.124;2022-07-29T00:14:02;20.10;99.90
24904;DHT22;12960;50.322;11.124;2022-07-29T00:15:04;20.10;99.90
24904;DHT22;12960;50.322;11.124;2022-07-29T00:16:05;20.00;99.90
24904;DHT22;12960;50.322;11.124;2022-07-29T00:17:06;20.10;99.90
24904;DHT22;12960;50.322;11.124;2022-07-29T00:18:07;20.00;99.90
24904;DHT22;12960;50.322;11.124;2022-07-29T00:19:08;20.00;99.90
24904;DHT22;12960;50.322;11.124;2022-07-29T00:20:09;20.00;99.90
24904;DHT22;12960;50.322;11.124;2022-07-29T00:21:10;20.00;99.90
24904;DHT22;12960;50.322;11.124;2022-07-29T00:22:11;20.00;99.90
24904;DHT22;12960;50.322;11.124;2022-07-29T00:23:12;20.00;99.90
24904;DHT22;12960;50.322;11.124;2022-07-29T00:24:13;20.10;99.90
24904;DHT22;12960;50.322;11.124;2022-07-29T00:25:15;20.10;99.90
24904;DHT22;12960;50.322;11.124;2022-07-29T00:26:16;20.00;99.90
24904;DHT22;12960;50.322;11.124;2022-07-29T00:27:17;20.00;99.90
24904;DHT22;12960;50.322;11.124;2022-07-29T00:28:18;20.10;99.90
24904;DHT22;12960;50.322;11.124;2022-07-29T00:29:19;20.10;99.90
24904;DHT22;12960;50.322;11.124;2022-07-29T00:30:20;20.10;99.90
24904;DHT22;12960;50.322;11.124;2022-07-29T00:31:21;20.10;99.90
24904;DHT22;12960;50.322;11.124;2022-07-29T00:32:22;20.10;99.90
24904;DHT22;12960;50.322;11.124;2022-07-29T00:33:23;20.10;99.90
24904;DHT22;12960;50.322;11.124;2022-07-29T00:34:24;20.10;99.90
24904;DHT22;12960;50.322;11.124;2022-07-29T00:35:44;20.10;99.90
24904;DHT22;12960;50.322;11.124;2022-07-29T00:36:45;20.20;99.90
24904;DHT22;12960;50.322;11.124;2022-07-29T00:37:46;20.20;99.90
24904;DHT22;12960;50.322;11.124;2022-07-29T00:38:48;20.20;99.90
24904;DHT22;12960;50.322;11.124;2022-07-29T00:39:49;20.10;99.90
24904;DHT22;12960;50.322;11.124;2022-07-29T00:40:50;20.10;99.90
24904;DHT22;12960;50.322;11.124;2022-07-29T00:41:51;20.00;99.90
24904;DHT22;12960;50.322;11.124;2022-07-29T00:42:52;20.00;99.90
24904;DHT22;12960;50.322;11.124;2022-07-29T00:43:53;20.10;99.90
24904;DHT22;12960;50.322;11.124;2022-07-29T00:44:54;20.10;99.90
24904;DHT22;12960;50.322;11.124;2022-07-29T00:45:55;20.10;99.90
24904;DHT22;12960;50.322;11.124;2022-07-29T00:46:56;20.10;99.90
24904;DHT22;12960;50.322;11.124;2022-07-29T00:47:58;20.10;99.90
24904;DHT22;12960;50.322;11.124;2022-07-29T00:48:59;20.10;99.90
24904;DHT22;12960;50.322;11.124;2022-07-29T00:50:00;20.20;99.90
24904;DHT22;12960;50.322;11.124;2022-07-29T00:51:02;20.10;99.90
24904;DHT22;12960;50.322;11.124;2022-07-29T00:52:05;20.10;99.90
24904;DHT22;12960;50.322;11.124;2022-07-29T00:53:07;20.10;99.90
24904;DHT22;12960;50.322;11.124;2022-07-29T00:54:08;20.10;99.90
24904;DHT22;12960;50.322;11.124;2022-07-29T00:55:12;20.10;99.90
24904;DHT22;12960;50.322;11.124;2022-07-29T00:56:14;20.10;99.90
24904;DHT22;12960;50.322;11.124;2022-07-29T00:57:15;20.10;99.90
24904;DHT22;12960;50.322;11.124;2022-07-29T00:58:16;20.10;99.90
24904;DHT22;12960;50.322;11.124;2022-07-29T00:59:17;20.10;99.90
24904;DHT22;12960;50.322;11.124;2022-07-29T01:00:22;20.10;99.90
24904;DHT22;12960;50.322;11.124;2022-07-29T01:01:23;20.10;99.90
24904;DHT22;12960;50.322;11.124;2022-07-29T01:02:25;20.10;99.90
24904;DHT22;12960;50.322;11.124;2022-07-29T01:03:26;20.10;99.90
24904;DHT22;12960;50.322;11.124;2022-07-29T01:04:27;20.10;99.90
24904;DHT22;12960;50.322;11.124;2022-07-29T01:05:28;20.10;99.90
24904;DHT22;12960;50.322;11.124;2022-07-29T01:06:30;20.10;99.90
24904;DHT22;12960;50.322;11.124;2022-07-29T01:07:35;20.10;99.90
24904;DHT22;12960;50.322;11.124;2022-07-29T01:08:37;20.20;99.90
24904;DHT22;12960;50.322;11.124;2022-07-29T01:09:40;20.20;99.90
24904;DHT22;12960;50.322;11.124;2022-07-29T01:10:41;20.20;99.90
24904;DHT22;12960;50.322;11.124;2022-07-29T01:11:46;20.20;99.90
24904;DHT22;12960;50.322;11.124;2022-07-29T01:12:50;20.20;99.90
24904;DHT22;12960;50.322;11.124;2022-07-29T01:13:51;20.20;99.90
24904;DHT22;12960;50.322;11.124;2022-07-29T01:14:54;20.20;99.90
24904;DHT22;12960;50.322;11.124;2022-07-29T01:15:59;20.20;99.90
24904;DHT22;12960;50.322;11.124;2022-07-29T01:17:21;20.20;99.90
24904;DHT22;12960;50.322;11.124;2022-07-29T01:18:31;20.20;99.90
24904;DHT22;12960;50.322;11.124;2022-07-29T01:19:53;20.10;99.90
24904;DHT22;12960;50.322;11.124;2022-07-29T01:21:24;20.10;99.90
24904;DHT22;12960;50.322;11.124;2022-07-29T01:22:42;20.10;99.90
24904;DHT22;12960;50.322;11.124;2022-07-29T01:26:46;20.00;99.90
24904;DHT22;12960;50.322;11.124;2022-07-29T01:29:45;20.00;99.90
24904;DHT22;12960;50.322;11.124;2022-07-29T01:30:51;20.00;99.90
24904;DHT22;12960;50.322;11.124;2022-07-29T01:32:08;20.00;99.90
24904;DHT22;12960;50.322;11.124;2022-07-29T01:33:14;20.00;99.90
24904;DHT22;12960;50.322;11.124;2022-07-29T01:35:13;19.90;99.90
24904;DHT22;12960;50.322;11.124;2022-07-29T01:36:22;19.80;99.90
24904;DHT22;12960;50.322;11.124;2022-07-29T01:38:44;19.90;99.90
24904;DHT22;12960;50.322;11.124;2022-07-29T01:39:47;19.90;99.90
24904;DHT22;12960;50.322;11.124;2022-07-29T01:40:58;19.90;99.90
24904;DHT22;12960;50.322;11.124;2022-07-29T01:42:10;19.90;99.90
24904;DHT22;12960;50.322;11.124;2022-07-29T01:43:17;19.90;99.90
24904;DHT22;12960;50.322;11.124;2022-07-29T01:44:24;19.90;99.90
24904;DHT22;12960;50.322;11.124;2022-07-29T01:45:47;19.90;99.90
24904;DHT22;12960;50.322;11.124;2022-07-29T01:46:54;19.90;99.90
24904;DHT22;12960;50.322;11.124;2022-07-29T01:48:06;20.00;99.90
24904;DHT22;12960;50.322;11.124;2022-07-29T01:49:20;19.90;99.90
24904;DHT22;12960;50.322;11.124;2022-07-29T01:50:28;19.90;99.90
24904;DHT22;12960;50.322;11.124;2022-07-29T01:51:35;19.90;99.90
24904;DHT22;12960;50.322;11.124;2022-07-29T01:52:42;19.80;99.90
24904;DHT22;12960;50.322;11.124;2022-07-29T01:54:01;19.90;99.90
24904;DHT22;12960;50.322;11.124;2022-07-29T01:55:09;19.90;99.90
24904;DHT22;12960;50.322;11.124;2022-07-29T01:56:11;19.90;99.90
24904;DHT22;12960;50.322;11.124;2022-07-29T01:57:14;19.90;99.90
24904;DHT22;12960;50.322;11.124;2022-07-29T01:58:19;19.90;99.90
24904;DHT22;12960;50.322;11.124;2022-07-29T01:59:21;19.90;99.90
24904;DHT22;12960;50.322;11.124;2022-07-29T02:00:25;19.80;99.90
24904;DHT22;12960;50.322;11.124;2022-07-29T02:01:27;19.80;99.90
24904;DHT22;12960;50.322;11.124;2022-07-29T02:02:31;19.90;99.90
24904;DHT22;12960;50.322;11.124;2022-07-29T02:03:34;19.80;99.90
24904;DHT22;12960;50.322;11.124;2022-07-29T02:04:37;19.80;99.90
24904;DHT22;12960;50.322;11.124;2022-07-29T02:05:41;19.70;99.90
24904;DHT22;12960;50.322;11.124;2022-07-29T02:06:44;19.70;99.90
24904;DHT22;12960;50.322;11.124;2022-07-29T02:07:47;19.60;99.90
24904;DHT22;12960;50.322;11.124;2022-07-29T02:08:50;19.60;99.90
24904;DHT22;12960;50.322;11.124;2022-07-29T02:09:52;19.50;99.90
24904;DHT22;12960;50.322;11.124;2022-07-29T02:10:55;19.50;99.90
24904;DHT22;12960;50.322;11.124;2022-07-29T02:11:57;19.50;99.90
24904;DHT22;12960;50.322;11.124;2022-07-29T02:13:02;19.50;99.90
24904;DHT22;12960;50.322;11.124;2022-07-29T02:14:04;19.20;99.90
24904;DHT22;12960;50.322;11.124;2022-07-29T02:15:06;19.10;99.90
24904;DHT22;12960;50.322;11.124;2022-07-29T02:16:09;19.00;99.90
24904;DHT22;12960;50.322;11.124;2022-07-29T02:17:11;18.90;99.90
24904;DHT22;12960;50.322;11.124;2022-07-29T02:18:16;19.00;99.90
24904;DHT22;12960;50.322;11.124;2022-07-29T02:19:19;18.90;99.90
24904;DHT22;12960;50.322;11.124;2022-07-29T02:20:22;18.90;99.90
24904;DHT22;12960;50.322;11.124;2022-07-29T02:21:26;18.90;99.90
24904;DHT22;12960;50.322;11.124;2022-07-29T02:22:30;18.70;99.90
24904;DHT22;12960;50.322;11.124;2022-07-29T02:23:33;18.70;99.90
24904;DHT22;12960;50.322;11.124;2022-07-29T02:24:37;18.60;99.90
24904;DHT22;12960;50.322;11.124;2022-07-29T02:25:41;18.70;99.90
24904;DHT22;12960;50.322;11.124;2022-07-29T02:26:43;18.70;99.90
24904;DHT22;12960;50.322;11.124;2022-07-29T02:27:46;18.60;99.90
24904;DHT22;12960;50.322;11.124;2022-07-29T02:28:49;18.60;99.90
24904;DHT22;12960;50.322;11.124;2022-07-29T02:29:51;18.60;99.90
24904;DHT22;12960;50.322;11.124;2022-07-29T02:30:55;18.70;99.90
24904;DHT22;12960;50.322;11.124;2022-07-29T02:31:59;18.80;99.90
24904;DHT22;12960;50.322;11.124;2022-07-29T02:33:01;18.90;99.90
24904;DHT22;12960;50.322;11.124;2022-07-29T02:34:06;18.90;99.90
24904;DHT22;12960;50.322;11.124;2022-07-29T02:35:08;18.80;99.90
24904;DHT22;12960;50.322;11.124;2022-07-29T02:36:10;18.80;99.90
24904;DHT22;12960;50.322;11.124;2022-07-29T02:37:12;18.80;99.90
24904;DHT22;12960;50.322;11.124;2022-07-29T02:38:15;18.90;99.90
24904;DHT22;12960;50.322;11.124;2022-07-29T02:39:36;19.00;99.90
24904;DHT22;12960;50.322;11.124;2022-07-29T02:40:39;19.20;99.90
24904;DHT22;12960;50.322;11.124;2022-07-29T02:41:50;19.20;99.90
24904;DHT22;12960;50.322;11.124;2022-07-29T02:42:52;19.30;99.90
24904;DHT22;12960;50.322;11.124;2022-07-29T02:44:02;19.30;99.90
24904;DHT22;12960;50.322;11.124;2022-07-29T02:45:05;19.30;99.90
24904;DHT22;12960;50.322;11.124;2022-07-29T02:46:16;19.40;99.90
24904;DHT22;12960;50.322;11.124;2022-07-29T02:47:39;19.40;99.90
24904;DHT22;12960;50.322;11.124;2022-07-29T02:48:48;19.40;99.90
24904;DHT22;12960;50.322;11.124;2022-07-29T02:50:15;19.30;99.90
24904;DHT22;12960;50.322;11.124;2022-07-29T02:51:23;19.30;99.90
24904;DHT22;12960;50.322;11.124;2022-07-29T02:52:41;19.30;99.90
24904;DHT22;12960;50.322;11.124;2022-07-29T02:53:48;19.20;99.90
24904;DHT22;12960;50.322;11.124;2022-07-29T02:55:00;19.20;99.90
24904;DHT22;12960;50.322;11.124;2022-07-29T02:56:08;19.20;99.90
24904;DHT22;12960;50.322;11.124;2022-07-29T02:57:18;19.20;99.90
24904;DHT22;12960;50.322;11.124;2022-07-29T02:58:30;19.30;99.90
24904;DHT22;12960;50.322;11.124;2022-07-29T02:59:32;19.40;99.90
24904;DHT22;12960;50.322;11.124;2022-07-29T03:00:37;19.40;99.90
24904;DHT22;12960;50.322;11.124;2022-07-29T03:01:41;19.40;99.90
24904;DHT22;12960;50.322;11.124;2022-07-29T03:02:50;19.40;99.90
24904;DHT22;12960;50.322;11.124;2022-07-29T03:03:53;19.50;99.90
24904;DHT22;12960;50.322;11.124;2022-07-29T03:04:55;19.50;99.90
24904;DHT22;12960;50.322;11.124;2022-07-29T03:06:00;19.60;99.90
24904;DHT22;12960;50.322;11.124;2022-07-29T03:07:02;19.60;99.90
24904;DHT22;12960;50.322;11.124;2022-07-29T03:08:05;19.60;99.90
24904;DHT22;12960;50.322;11.124;2022-07-29T03:09:07;19.60;99.90
24904;DHT22;12960;50.322;11.124;2022-07-29T03:10:09;19.60;99.90
24904;DHT22;12960;50.322;11.124;2022-07-29T03:11:11;19.60;99.90
24904;DHT22;12960;50.322;11.124;2022-07-29T03:12:14;19.50;99.90
24904;DHT22;12960;50.322;11.124;2022-07-29T03:13:16;19.50;99.90
24904;DHT22;12960;50.322;11.124;2022-07-29T03:14:18;19.60;99.90
24904;DHT22;12960;50.322;11.124;2022-07-29T03:15:20;19.60;99.90
24904;DHT22;12960;50.322;11.124;2022-07-29T03:16:22;19.60;99.90
24904;DHT22;12960;50.322;11.124;2022-07-29T03:17:24;19.60;99.90
24904;DHT22;12960;50.322;11.124;2022-07-29T03:18:26;19.60;99.90
24904;DHT22;12960;50.322;11.124;2022-07-29T03:19:27;19.60;99.90
24904;DHT22;12960;50.322;11.124;2022-07-29T03:20:29;19.60;99.90
24904;DHT22;12960;50.322;11.124;2022-07-29T03:21:30;19.50;99.90
24904;DHT22;12960;50.322;11.124;2022-07-29T03:22:31;19.50;99.90
24904;DHT22;12960;50.322;11.124;2022-07-29T03:23:33;19.50;99.90
24904;DHT22;12960;50.322;11.124;2022-07-29T03:24:36;19.50;99.90
24904;DHT22;12960;50.322;11.124;2022-07-29T03:25:37;19.50;99.90
24904;DHT22;12960;50.322;11.124;2022-07-29T03:26:38;19.50;99.90
24904;DHT22;12960;50.322;11.124;2022-07-29T03:27:40;19.50;99.90
24904;DHT22;12960;50.322;11.124;2022-07-29T03:28:41;19.50;99.90
24904;DHT22;12960;50.322;11.124;2022-07-29T03:29:42;19.50;99.90
24904;DHT22;12960;50.322;11.124;2022-07-29T03:30:43;19.50;99.90
24904;DHT22;12960;50.322;11.124;2022-07-29T03:31:44;19.50;99.90
24904;DHT22;12960;50.322;11.124;2022-07-29T03:32:45;19.40;99.90
24904;DHT22;12960;50.322;11.124;2022-07-29T03:33:46;19.40;99.90
24904;DHT22;12960;50.322;11.124;2022-07-29T03:34:47;19.40;99.90
24904;DHT22;12960;50.322;11.124;2022-07-29T03:35:48;19.30;99.90
24904;DHT22;12960;50.322;11.124;2022-07-29T03:36:49;19.30;99.90
24904;DHT22;12960;50.322;11.124;2022-07-29T03:37:50;19.30;99.90
24904;DHT22;12960;50.322;11.124;2022-07-29T03:38:52;19.30;99.90
24904;DHT22;12960;50.322;11.124;2022-07-29T03:39:55;19.20;99.90
24904;DHT22;12960;50.322;11.124;2022-07-29T03:41:01;19.20;99.90
24904;DHT22;12960;50.322;11.124;2022-07-29T03:42:04;19.20;99.90
24904;DHT22;12960;50.322;11.124;2022-07-29T03:43:08;19.20;99.90
24904;DHT22;12960;50.322;11.124;2022-07-29T03:44:11;19.00;99.90
24904;DHT22;12960;50.322;11.124;2022-07-29T03:45:17;18.90;99.90
24904;DHT22;12960;50.322;11.124;2022-07-29T03:46:20;18.80;99.90
24904;DHT22;12960;50.322;11.124;2022-07-29T03:47:25;18.80;99.90
24904;DHT22;12960;50.322;11.124;2022-07-29T03:48:31;18.70;99.90
24904;DHT22;12960;50.322;11.124;2022-07-29T03:49:36;18.60;99.90
24904;DHT22;12960;50.322;11.124;2022-07-29T03:50:37;18.50;99.90
24904;DHT22;12960;50.322;11.124;2022-07-29T03:51:38;18.40;99.90
24904;DHT22;12960;50.322;11.124;2022-07-29T03:52:40;18.40;99.90
24904;DHT22;12960;50.322;11.124;2022-07-29T03:53:41;18.30;99.90
24904;DHT22;12960;50.322;11.124;2022-07-29T03:54:43;18.20;99.90
24904;DHT22;12960;50.322;11.124;2022-07-29T03:55:48;18.20;99.90
24904;DHT22;12960;50.322;11.124;2022-07-29T03:56:52;18.10;99.90
24904;DHT22;12960;50.322;11.124;2022-07-29T03:57:57;18.10;99.90
24904;DHT22;12960;50.322;11.124;2022-07-29T03:58:58;18.10;99.90
24904;DHT22;12960;50.322;11.124;2022-07-29T04:00:02;18.00;99.90
24904;DHT22;12960;50.322;11.124;2022-07-29T04:01:04;18.20;99.90
24904;DHT22;12960;50.322;11.124;2022-07-29T04:02:08;18.20;99.90
24904;DHT22;12960;50.322;11.124;2022-07-29T04:03:10;18.20;99.90
24904;DHT22;12960;50.322;11.124;2022-07-29T04:04:11;18.30;99.90
24904;DHT22;12960;50.322;11.124;2022-07-29T04:05:13;18.40;99.90
24904;DHT22;12960;50.322;11.124;2022-07-29T04:06:14;18.60;99.90
24904;DHT22;12960;50.322;11.124;2022-07-29T04:07:15;18.60;99.90
24904;DHT22;12960;50.322;11.124;2022-07-29T04:08:16;18.80;99.90
24904;DHT22;12960;50.322;11.124;2022-07-29T04:09:17;18.90;99.90
24904;DHT22;12960;50.322;11.124;2022-07-29T04:10:18;18.90;99.90
24904;DHT22;12960;50.322;11.124;2022-07-29T04:11:19;19.00;99.90
24904;DHT22;12960;50.322;11.124;2022-07-29T04:12:20;19.00;99.90
24904;DHT22;12960;50.322;11.124;2022-07-29T04:13:21;19.10;99.90
24904;DHT22;12960;50.322;11.124;2022-07-29T04:14:22;19.00;99.90
24904;DHT22;12960;50.322;11.124;2022-07-29T04:15:24;19.00;99.90
24904;DHT22;12960;50.322;11.124;2022-07-29T04:16:25;19.00;99.90
24904;DHT22;12960;50.322;11.124;2022-07-29T04:17:26;19.00;99.90
24904;DHT22;12960;50.322;11.124;2022-07-29T04:18:27;19.10;99.90
24904;DHT22;12960;50.322;11.124;2022-07-29T04:19:28;19.10;99.90
24904;DHT22;12960;50.322;11.124;2022-07-29T04:20:29;19.10;99.90
24904;DHT22;12960;50.322;11.124;2022-07-29T04:21:30;19.00;99.90
24904;DHT22;12960;50.322;11.124;2022-07-29T04:22:32;19.10;99.90
24904;DHT22;12960;50.322;11.124;2022-07-29T04:23:33;19.10;99.90
24904;DHT22;12960;50.322;11.124;2022-07-29T04:24:34;19.10;99.90
24904;DHT22;12960;50.322;11.124;2022-07-29T04:25:39;19.00;99.90
24904;DHT22;12960;50.322;11.124;2022-07-29T04:26:40;19.10;99.90
24904;DHT22;12960;50.322;11.124;2022-07-29T04:27:41;19.00;99.90
24904;DHT22;12960;50.322;11.124;2022-07-29T04:29:00;18.90;99.90
24904;DHT22;12960;50.322;11.124;2022-07-29T04:30:02;18.90;99.90
24904;DHT22;12960;50.322;11.124;2022-07-29T04:31:03;18.90;99.90
24904;DHT22;12960;50.322;11.124;2022-07-29T04:32:04;19.00;99.90
24904;DHT22;12960;50.322;11.124;2022-07-29T04:33:06;19.00;99.90
24904;DHT22;12960;50.322;11.124;2022-07-29T04:34:08;18.90;99.90
24904;DHT22;12960;50.322;11.124;2022-07-29T04:35:09;18.90;99.90
24904;DHT22;12960;50.322;11.124;2022-07-29T04:36:10;18.80;99.90
24904;DHT22;12960;50.322;11.124;2022-07-29T04:37:11;18.70;99.90
24904;DHT22;12960;50.322;11.124;2022-07-29T04:38:13;18.60;99.90
24904;DHT22;12960;50.322;11.124;2022-07-29T04:39:14;18.50;99.90
24904;DHT22;12960;50.322;11.124;2022-07-29T04:40:15;18.40;99.90
24904;DHT22;12960;50.322;11.124;2022-07-29T04:41:16;18.20;99.90
24904;DHT22;12960;50.322;11.124;2022-07-29T04:42:17;18.10;99.90
24904;DHT22;12960;50.322;11.124;2022-07-29T04:43:18;18.00;99.90
24904;DHT22;12960;50.322;11.124;2022-07-29T04:44:19;17.90;99.90
24904;DHT22;12960;50.322;11.124;2022-07-29T04:45:20;17.80;99.90
24904;DHT22;12960;50.322;11.124;2022-07-29T04:46:21;17.70;99.90
24904;DHT22;12960;50.322;11.124;2022-07-29T04:47:22;17.60;99.90
24904;DHT22;12960;50.322;11.124;2022-07-29T04:48:23;17.60;99.90
24904;DHT22;12960;50.322;11.124;2022-07-29T04:49:25;17.60;1.00
24904;DHT22;12960;50.322;11.124;2022-07-29T04:50:26;17.60;99.90
24904;DHT22;12960;50.322;11.124;2022-07-29T04:51:27;17.70;1.00
24904;DHT22;12960;50.322;11.124;2022-07-29T04:52:28;17.70;1.00
24904;DHT22;12960;50.322;11.124;2022-07-29T04:53:29;17.60;1.00
24904;DHT22;12960;50.322;11.124;2022-07-29T04:54:30;17.60;99.90
24904;DHT22;12960;50.322;11.124;2022-07-29T04:55:32;17.60;1.00
24904;DHT22;12960;50.322;11.124;2022-07-29T04:56:33;17.60;1.00
24904;DHT22;12960;50.322;11.124;2022-07-29T04:57:34;17.60;1.00
24904;DHT22;12960;50.322;11.124;2022-07-29T04:58:35;17.60;1.00
24904;DHT22;12960;50.322;11.124;2022-07-29T04:59:36;17.60;1.00
24904;DHT22;12960;50.322;11.124;2022-07-29T05:00:38;17.60;1.00
24904;DHT22;12960;50.322;11.124;2022-07-29T05:01:39;17.60;1.00
24904;DHT22;12960;50.322;11.124;2022-07-29T05:02:41;17.60;1.00
24904;DHT22;12960;50.322;11.124;2022-07-29T05:03:42;17.60;99.90
24904;DHT22;12960;50.322;11.124;2022-07-29T05:04:43;17.60;99.90
24904;DHT22;12960;50.322;11.124;2022-07-29T05:05:44;17.60;99.90
24904;DHT22;12960;50.322;11.124;2022-07-29T05:06:45;17.70;99.90
24904;DHT22;12960;50.322;11.124;2022-07-29T05:07:46;17.70;1.00
24904;DHT22;12960;50.322;11.124;2022-07-29T05:08:47;17.60;1.00
24904;DHT22;12960;50.322;11.124;2022-07-29T05:09:48;17.70;99.90
24904;DHT22;12960;50.322;11.124;2022-07-29T05:10:49;17.80;1.00
24904;DHT22;12960;50.322;11.124;2022-07-29T05:11:50;17.80;99.90
24904;DHT22;12960;50.322;11.124;2022-07-29T05:12:51;17.90;99.90
24904;DHT22;12960;50.322;11.124;2022-07-29T05:13:52;17.90;99.90
24904;DHT22;12960;50.322;11.124;2022-07-29T05:14:53;18.00;99.90
24904;DHT22;12960;50.322;11.124;2022-07-29T05:15:54;18.10;99.90
24904;DHT22;12960;50.322;11.124;2022-07-29T05:16:55;18.20;99.90
24904;DHT22;12960;50.322;11.124;2022-07-29T05:17:57;18.20;99.90
24904;DHT22;12960;50.322;11.124;2022-07-29T05:18:58;18.30;99.90
24904;DHT22;12960;50.322;11.124;2022-07-29T05:20:00;18.30;1.00
24904;DHT22;12960;50.322;11.124;2022-07-29T05:21:01;18.40;99.90
24904;DHT22;12960;50.322;11.124;2022-07-29T05:22:02;18.50;99.90
24904;DHT22;12960;50.322;11.124;2022-07-29T05:23:03;18.50;99.90
24904;DHT22;12960;50.322;11.124;2022-07-29T05:24:04;18.60;99.90
24904;DHT22;12960;50.322;11.124;2022-07-29T05:25:05;18.60;99.90
24904;DHT22;12960;50.322;11.124;2022-07-29T05:26:06;18.70;99.90
24904;DHT22;12960;50.322;11.124;2022-07-29T05:27:07;18.80;99.90
24904;DHT22;12960;50.322;11.124;2022-07-29T05:28:08;18.90;99.90
24904;DHT22;12960;50.322;11.124;2022-07-29T05:29:09;19.00;99.90
24904;DHT22;12960;50.322;11.124;2022-07-29T05:30:12;19.10;99.90
24904;DHT22;12960;50.322;11.124;2022-07-29T05:31:13;19.30;99.90
24904;DHT22;12960;50.322;11.124;2022-07-29T05:32:15;19.40;99.90
24904;DHT22;12960;50.322;11.124;2022-07-29T05:33:16;19.60;99.90
24904;DHT22;12960;50.322;11.124;2022-07-29T05:34:17;19.70;99.90
24904;DHT22;12960;50.322;11.124;2022-07-29T05:35:19;19.90;99.90
24904;DHT22;12960;50.322;11.124;2022-07-29T05:36:20;20.10;99.90
24904;DHT22;12960;50.322;11.124;2022-07-29T05:37:21;20.10;99.90
24904;DHT22;12960;50.322;11.124;2022-07-29T05:38:22;20.20;99.90
24904;DHT22;12960;50.322;11.124;2022-07-29T05:39:23;20.20;99.90
24904;DHT22;12960;50.322;11.124;2022-07-29T05:40:24;20.30;99.90
24904;DHT22;12960;50.322;11.124;2022-07-29T05:41:25;20.30;99.90
24904;DHT22;12960;50.322;11.124;2022-07-29T05:42:26;20.40;99.90
24904;DHT22;12960;50.322;11.124;2022-07-29T05:43:28;20.40;99.90
24904;DHT22;12960;50.322;11.124;2022-07-29T05:44:29;20.40;99.90
24904;DHT22;12960;50.322;11.124;2022-07-29T05:45:30;20.40;99.90
24904;DHT22;12960;50.322;11.124;2022-07-29T05:46:31;20.50;99.90
24904;DHT22;12960;50.322;11.124;2022-07-29T05:47:32;20.60;99.90
24904;DHT22;12960;50.322;11.124;2022-07-29T05:48:33;20.60;99.90
24904;DHT22;12960;50.322;11.124;2022-07-29T05:49:34;20.60;99.90
24904;DHT22;12960;50.322;11.124;2022-07-29T05:50:35;20.60;99.90
24904;DHT22;12960;50.322;11.124;2022-07-29T05:51:36;20.70;99.90
24904;DHT22;12960;50.322;11.124;2022-07-29T05:52:37;20.90;99.90
24904;DHT22;12960;50.322;11.124;2022-07-29T05:53:38;20.90;99.90
24904;DHT22;12960;50.322;11.124;2022-07-29T05:54:39;21.00;99.90
24904;DHT22;12960;50.322;11.124;2022-07-29T05:55:40;21.10;99.90
24904;DHT22;12960;50.322;11.124;2022-07-29T05:56:41;21.20;99.90
24904;DHT22;12960;50.322;11.124;2022-07-29T05:57:42;21.30;99.90
24904;DHT22;12960;50.322;11.124;2022-07-29T05:58:45;21.30;99.90
24904;DHT22;12960;50.322;11.124;2022-07-29T05:59:46;21.30;99.90
24904;DHT22;12960;50.322;11.124;2022-07-29T06:00:48;21.40;99.90
24904;DHT22;12960;50.322;11.124;2022-07-29T06:01:49;21.50;99.90
24904;DHT22;12960;50.322;11.124;2022-07-29T06:02:50;21.60;99.90
24904;DHT22;12960;50.322;11.124;2022-07-29T06:03:51;21.60;99.90
24904;DHT22;12960;50.322;11.124;2022-07-29T06:04:52;21.60;99.90
24904;DHT22;12960;50.322;11.124;2022-07-29T06:05:53;21.60;99.90
24904;DHT22;12960;50.322;11.124;2022-07-29T06:06:54;21.60;99.90
24904;DHT22;12960;50.322;11.124;2022-07-29T06:07:55;21.60;99.90
24904;DHT22;12960;50.322;11.124;2022-07-29T06:08:56;21.60;99.90
24904;DHT22;12960;50.322;11.124;2022-07-29T06:09:57;21.60;99.90
24904;DHT22;12960;50.322;11.124;2022-07-29T06:10:58;21.70;99.90
24904;DHT22;12960;50.322;11.124;2022-07-29T06:11:59;21.80;99.90
24904;DHT22;12960;50.322;11.124;2022-07-29T06:13:00;21.90;99.90
24904;DHT22;12960;50.322;11.124;2022-07-29T06:14:02;21.90;99.90
24904;DHT22;12960;50.322;11.124;2022-07-29T06:15:04;21.90;99.90
24904;DHT22;12960;50.322;11.124;2022-07-29T06:16:05;21.90;99.90
24904;DHT22;12960;50.322;11.124;2022-07-29T06:17:06;22.00;99.90
24904;DHT22;12960;50.322;11.124;2022-07-29T06:18:07;22.00;99.90
24904;DHT22;12960;50.322;11.124;2022-07-29T06:19:10;22.10;99.90
24904;DHT22;12960;50.322;11.124;2022-07-29T06:20:11;22.00;99.90
24904;DHT22;12960;50.322;11.124;2022-07-29T06:21:12;22.00;99.90
24904;DHT22;12960;50.322;11.124;2022-07-29T06:22:15;22.10;99.90
24904;DHT22;12960;50.322;11.124;2022-07-29T06:23:18;22.00;99.90
24904;DHT22;12960;50.322;11.124;2022-07-29T06:24:19;22.10;99.90
24904;DHT22;12960;50.322;11.124;2022-07-29T06:25:20;22.00;99.90
24904;DHT22;12960;50.322;11.124;2022-07-29T06:26:21;22.00;99.90
24904;DHT22;12960;50.322;11.124;2022-07-29T06:27:23;22.00;99.90
24904;DHT22;12960;50.322;11.124;2022-07-29T06:28:24;21.90;99.90
24904;DHT22;12960;50.322;11.124;2022-07-29T06:29:25;21.90;99.90
24904;DHT22;12960;50.322;11.124;2022-07-29T06:30:26;21.90;99.90
24904;DHT22;12960;50.322;11.124;2022-07-29T06:31:27;21.80;99.90
24904;DHT22;12960;50.322;11.124;2022-07-29T06:32:28;21.80;99.90
24904;DHT22;12960;50.322;11.124;2022-07-29T06:33:29;21.80;99.90
24904;DHT22;12960;50.322;11.124;2022-07-29T06:34:30;21.80;99.90
24904;DHT22;12960;50.322;11.124;2022-07-29T06:35:35;21.80;99.90
24904;DHT22;12960;50.322;11.124;2022-07-29T06:36:37;21.80;99.90
24904;DHT22;12960;50.322;11.124;2022-07-29T06:37:39;21.70;99.90
24904;DHT22;12960;50.322;11.124;2022-07-29T06:38:40;21.80;99.90
24904;DHT22;12960;50.322;11.124;2022-07-29T06:39:41;21.80;99.90